createdAt,value
2022-12-15T00:02:18.558Z,-7.10
2022-12-15T00:05:04.348Z,-7.10
2022-12-15T00:07:51.856Z,-7.10
2022-12-15T00:10:37.827Z,-7.10
2022-12-15T00:13:29.505Z,-7.10
2022-12-15T00:16:15.722Z,-7.10
2022-12-15T00:19:01.473Z,-7.10
2022-12-15T00:21:47.232Z,-7.00
2022-12-15T00:24:34.712Z,-7.00
2022-12-15T00:27:20.978Z,-7.10
2022-12-15T00:30:06.654Z,-7.20
2022-12-15T00:32:52.274Z,-7.30
2022-12-15T00:35:38.290Z,-7.30
2022-12-15T00:38:28.219Z,-7.30
2022-12-15T00:40:59.722Z,-7.30
2022-12-15T00:43:28.999Z,-7.20
2022-12-15T00:46:15.701Z,-7.20
2022-12-15T00:48:45.012Z,-7.10
2022-12-15T00:51:13.172Z,-7.20
2022-12-15T00:53:59.908Z,-7.20
2022-12-15T00:56:47.623Z,-7.40
2022-12-15T00:59:33.998Z,-7.40
2022-12-15T01:02:20.460Z,-7.30
2022-12-15T01:05:06.772Z,-7.20
2022-12-15T01:07:52.606Z,-7.10
2022-12-15T01:10:38.360Z,-7.10
2022-12-15T01:13:25.381Z,-7.10
2022-12-15T01:16:10.911Z,-7.00
2022-12-15T01:18:56.569Z,-7.10
2022-12-15T01:21:26.616Z,-7.20
2022-12-15T01:23:55.061Z,-7.10
2022-12-15T01:26:23.276Z,-7.20
2022-12-15T01:28:52.999Z,-7.10
2022-12-15T01:31:21.354Z,-7.10
2022-12-15T01:33:50.227Z,-7.20
2022-12-15T01:36:21.457Z,-7.20
2022-12-15T01:38:54.036Z,-7.20
2022-12-15T01:41:21.909Z,-7.40
2022-12-15T01:43:50.262Z,-7.60
2022-12-15T01:46:22.819Z,-7.70
2022-12-15T01:48:55.793Z,-7.80
2022-12-15T01:51:28.516Z,-7.80
2022-12-15T01:54:02.737Z,-7.60
2022-12-15T01:56:37.557Z,-7.50
2022-12-15T01:59:09.024Z,-7.50
2022-12-15T02:01:38.858Z,-7.50
2022-12-15T02:04:07.737Z,-7.50
2022-12-15T02:06:37.342Z,-7.50
2022-12-15T02:09:06.407Z,-7.50
2022-12-15T02:11:48.790Z,-7.40
2022-12-15T02:14:25.958Z,-7.40
2022-12-15T02:17:07.258Z,-7.60
2022-12-15T02:19:55.043Z,-7.60
2022-12-15T02:22:36.020Z,-7.60
2022-12-15T02:25:32.741Z,-7.60
2022-12-15T02:28:05.903Z,-7.60
2022-12-15T02:31:11.659Z,-7.40
2022-12-15T02:33:47.529Z,-7.50
2022-12-15T02:36:22.244Z,-7.50
2022-12-15T02:38:50.477Z,-7.50
2022-12-15T02:41:40.596Z,-7.50
2022-12-15T02:44:13.823Z,-7.50
2022-12-15T02:47:15.218Z,-7.60
2022-12-15T02:49:54.906Z,-7.60
2022-12-15T02:52:38.741Z,-7.60
2022-12-15T02:55:17.083Z,-7.70
2022-12-15T02:57:54.345Z,-7.70
2022-12-15T03:00:43.918Z,-7.70
2022-12-15T03:03:20.376Z,-7.60
2022-12-15T03:05:49.279Z,-7.60
2022-12-15T03:08:17.624Z,-7.70
2022-12-15T03:10:46.151Z,-7.60
2022-12-15T03:13:15.089Z,-7.60
2022-12-15T03:15:43.424Z,-7.70
2022-12-15T03:18:13.124Z,-7.80
2022-12-15T03:20:41.398Z,-7.80
2022-12-15T03:23:09.766Z,-7.80
2022-12-15T03:25:38.365Z,-7.80
2022-12-15T03:28:06.787Z,-7.90
2022-12-15T03:30:35.117Z,-8.00
2022-12-15T03:33:03.440Z,-8.20
2022-12-15T03:35:34.450Z,-8.10
2022-12-15T03:38:02.666Z,-8.10
2022-12-15T03:40:31.152Z,-8.10
2022-12-15T03:42:59.336Z,-8.00
2022-12-15T03:45:29.790Z,-8.00
2022-12-15T03:47:58.835Z,-7.90
2022-12-15T03:50:29.025Z,-7.80
2022-12-15T03:53:01.080Z,-7.90
2022-12-15T03:55:29.975Z,-7.90
2022-12-15T03:57:59.177Z,-8.00
2022-12-15T04:00:28.506Z,-8.10
2022-12-15T04:02:56.913Z,-8.20
2022-12-15T04:05:26.897Z,-8.20
2022-12-15T04:07:55.833Z,-8.20
2022-12-15T04:10:31.865Z,-8.10
2022-12-15T04:13:03.610Z,-8.00
2022-12-15T04:15:31.873Z,-8.00
2022-12-15T04:18:00.131Z,-8.00
2022-12-15T04:20:27.421Z,-7.90
2022-12-15T04:22:55.605Z,-8.10
2022-12-15T04:25:44.234Z,-8.20
2022-12-15T04:28:31.650Z,-8.20
2022-12-15T04:31:20.346Z,-8.20
2022-12-15T04:34:09.240Z,-8.30
2022-12-15T04:36:57.307Z,-8.30
2022-12-15T04:39:43.404Z,-8.20
2022-12-15T04:42:30.345Z,-8.30
2022-12-15T04:45:21.060Z,-8.40
2022-12-15T04:51:10.377Z,-8.40
2022-12-15T04:53:55.686Z,-8.40
2022-12-15T04:56:41.503Z,-8.60
2022-12-15T04:59:28.606Z,-8.50
2022-12-15T05:02:14.289Z,-8.60
2022-12-15T05:04:59.861Z,-8.50
2022-12-15T05:07:46.555Z,-8.70
2022-12-15T05:10:32.237Z,-8.50
2022-12-15T05:13:23.647Z,-8.60
2022-12-15T05:16:10.840Z,-8.60
2022-12-15T05:18:57.133Z,-8.50
2022-12-15T05:21:42.826Z,-8.50
2022-12-15T05:24:28.317Z,-8.50
2022-12-15T05:27:13.947Z,-8.60
2022-12-15T05:29:59.682Z,-8.70
2022-12-15T05:32:29.498Z,-8.80
2022-12-15T05:34:57.793Z,-8.80
2022-12-15T05:37:26.070Z,-8.60
2022-12-15T05:39:54.391Z,-8.60
2022-12-15T05:42:22.713Z,-8.70
2022-12-15T05:44:51.057Z,-8.60
2022-12-15T05:47:19.308Z,-8.60
2022-12-15T05:49:49.267Z,-8.60
2022-12-15T05:52:17.598Z,-8.60
2022-12-15T05:54:45.892Z,-8.60
2022-12-15T05:57:14.208Z,-8.60
2022-12-15T05:59:42.657Z,-8.60
2022-12-15T06:02:11.299Z,-8.50
2022-12-15T06:04:39.680Z,-8.60
2022-12-15T06:07:10.128Z,-8.60
2022-12-15T06:09:38.409Z,-8.60
2022-12-15T06:12:07.085Z,-8.50
2022-12-15T06:14:36.473Z,-8.50
2022-12-15T06:17:05.518Z,-8.40
2022-12-15T06:19:33.753Z,-8.50
2022-12-15T06:22:02.217Z,-8.50
2022-12-15T06:24:31.865Z,-8.30
2022-12-15T06:27:01.197Z,-8.40
2022-12-15T06:29:29.648Z,-8.50
2022-12-15T06:31:58.021Z,-8.70
2022-12-15T06:34:27.154Z,-8.60
2022-12-15T06:36:55.473Z,-8.60
2022-12-15T06:39:23.717Z,-8.60
2022-12-15T06:41:53.381Z,-8.50
2022-12-15T06:44:21.944Z,-8.50
2022-12-15T06:46:50.291Z,-8.50
2022-12-15T06:49:19.281Z,-8.40
2022-12-15T06:51:50.231Z,-8.60
2022-12-15T06:54:18.558Z,-8.60
2022-12-15T06:56:46.839Z,-8.70
2022-12-15T06:59:20.053Z,-8.70
2022-12-15T07:01:48.602Z,-8.60
2022-12-15T07:04:17.536Z,-8.60
2022-12-15T07:06:45.932Z,-8.60
2022-12-15T07:09:17.281Z,-8.50
2022-12-15T07:11:46.561Z,-8.60
2022-12-15T07:14:14.799Z,-8.70
2022-12-15T07:16:45.581Z,-8.60
2022-12-15T07:19:14.431Z,-8.60
2022-12-15T07:21:43.112Z,-8.60
2022-12-15T07:24:13.110Z,-8.80
2022-12-15T07:26:41.839Z,-8.60
2022-12-15T07:29:11.918Z,-8.60
2022-12-15T07:31:40.652Z,-8.50
2022-12-15T07:34:10.990Z,-8.50
2022-12-15T07:36:45.751Z,-8.50
2022-12-15T07:39:19.199Z,-8.50
2022-12-15T07:41:48.208Z,-8.40
2022-12-15T07:44:17.419Z,-8.50
2022-12-15T07:46:49.421Z,-8.60
2022-12-15T07:49:20.410Z,-8.50
2022-12-15T07:51:48.681Z,-8.60
2022-12-15T07:54:17.944Z,-8.60
2022-12-15T07:56:50.183Z,-8.40
2022-12-15T07:59:18.805Z,-8.50
2022-12-15T08:01:47.569Z,-8.30
2022-12-15T08:04:16.373Z,-7.20
2022-12-15T08:06:47.232Z,-6.40
2022-12-15T08:09:15.804Z,-6.80
2022-12-15T08:11:44.255Z,-7.30
2022-12-15T08:14:17.252Z,-7.40
2022-12-15T08:20:27.156Z,-7.20
2022-12-15T08:22:56.857Z,-6.50
2022-12-15T08:25:25.139Z,-6.00
2022-12-15T08:27:53.730Z,-7.30
2022-12-15T08:30:22.689Z,-7.40
2022-12-15T08:32:52.201Z,-7.70
2022-12-15T08:35:54.705Z,-7.90
2022-12-15T08:38:10.898Z,-7.80
2022-12-15T08:40:39.210Z,-7.70
2022-12-15T08:43:07.944Z,-7.70
2022-12-15T08:45:36.309Z,-7.40
2022-12-15T08:48:04.918Z,-7.40
2022-12-15T08:50:33.203Z,-7.30
2022-12-15T08:53:29.682Z,-7.20
2022-12-15T08:55:51.823Z,-7.50
2022-12-15T08:58:20.696Z,-7.30
2022-12-15T09:00:49.199Z,-7.40
2022-12-15T09:03:18.668Z,-7.30
2022-12-15T09:05:47.231Z,-7.60
2022-12-15T09:08:18.504Z,-7.90
2022-12-15T09:10:46.847Z,-7.90
2022-12-15T09:13:22.779Z,-7.70
2022-12-15T09:16:09.234Z,-7.50
2022-12-15T09:18:40.501Z,-7.60
2022-12-15T09:21:09.593Z,-7.80
2022-12-15T09:23:48.735Z,-7.50
2022-12-15T09:26:17.376Z,-7.50
2022-12-15T09:28:50.836Z,-7.20
2022-12-15T09:31:22.317Z,-7.40
2022-12-15T09:33:52.279Z,-7.40
2022-12-15T09:36:20.895Z,-7.10
2022-12-15T09:38:49.386Z,-6.90
2022-12-15T09:41:24.086Z,-6.70
2022-12-15T09:44:00.342Z,-6.40
2022-12-15T09:46:38.189Z,-6.40
2022-12-15T09:49:14.765Z,-6.20
2022-12-15T09:51:49.408Z,-6.30
2022-12-15T09:54:18.233Z,-6.10
2022-12-15T09:56:55.090Z,-6.00
2022-12-15T09:59:33.395Z,-6.00
2022-12-15T10:02:29.713Z,-6.00
2022-12-15T10:05:06.831Z,-6.00
2022-12-15T10:07:41.997Z,-6.20
2022-12-15T10:10:16.951Z,-6.10
2022-12-15T10:12:57.631Z,-6.10
2022-12-15T10:15:39.232Z,-6.10
2022-12-15T10:18:17.216Z,-6.00
2022-12-15T10:20:46.268Z,-5.90
2022-12-15T10:23:18.858Z,-5.80
2022-12-15T10:25:51.325Z,-5.60
2022-12-15T10:28:45.566Z,-5.60
2022-12-15T10:31:28.433Z,-5.60
2022-12-15T10:34:05.523Z,-5.50
2022-12-15T10:36:33.978Z,-5.20
2022-12-15T10:39:02.247Z,-5.20
2022-12-15T10:41:37.388Z,-5.20
2022-12-15T10:44:32.097Z,-5.20
2022-12-15T10:47:12.467Z,-5.10
2022-12-15T10:49:40.904Z,-4.80
2022-12-15T10:52:20.582Z,-4.50
2022-12-15T10:54:51.568Z,-4.60
2022-12-15T10:57:23.589Z,-4.80
2022-12-15T10:59:52.548Z,-5.00
2022-12-15T11:02:34.561Z,-4.90
2022-12-15T11:05:05.285Z,-4.80
2022-12-15T11:07:39.490Z,-4.70
2022-12-15T11:10:20.431Z,-4.60
2022-12-15T11:13:01.240Z,-4.60
2022-12-15T11:15:50.768Z,-4.50
2022-12-15T11:18:34.456Z,-4.40
2022-12-15T11:21:06.185Z,-4.30
2022-12-15T11:23:50.335Z,-4.10
2022-12-15T11:26:28.148Z,-4.20
2022-12-15T11:29:00.963Z,-4.20
2022-12-15T11:31:34.555Z,-4.30
2022-12-15T11:34:04.856Z,-4.20
2022-12-15T11:37:04.165Z,-3.90
2022-12-15T11:39:50.311Z,-3.90
2022-12-15T11:42:30.440Z,-4.10
2022-12-15T11:45:09.598Z,-4.20
2022-12-15T11:47:44.984Z,-4.00
2022-12-15T11:50:27.809Z,-3.80
2022-12-15T11:53:18.618Z,-3.70
2022-12-15T11:55:55.113Z,-3.60
2022-12-15T11:58:51.062Z,-3.50
2022-12-15T12:01:48.947Z,-3.60
2022-12-15T12:04:25.610Z,-3.70
2022-12-15T12:07:10.040Z,-3.50
2022-12-15T12:09:42.306Z,-2.90
2022-12-15T12:12:17.478Z,-2.50
2022-12-15T12:14:57.645Z,-3.00
2022-12-15T12:17:41.793Z,-3.10
2022-12-15T12:20:18.515Z,-3.30
2022-12-15T12:22:56.482Z,-3.10
2022-12-15T12:25:26.879Z,-3.20
2022-12-15T12:27:59.487Z,-3.10
2022-12-15T12:30:31.227Z,-3.20
2022-12-15T12:33:06.895Z,-3.40
2022-12-15T12:35:39.953Z,-3.10
2022-12-15T12:38:12.083Z,-3.10
2022-12-15T12:40:54.565Z,-3.20
2022-12-15T12:43:32.765Z,-3.10
2022-12-15T12:46:07.042Z,-3.10
2022-12-15T12:48:40.297Z,-3.00
2022-12-15T12:51:24.585Z,-2.90
2022-12-15T12:53:55.009Z,-2.90
2022-12-15T12:56:40.618Z,-2.80
2022-12-15T12:59:38.890Z,-2.90
2022-12-15T13:02:56.106Z,-3.00
2022-12-15T13:05:28.014Z,-3.00
2022-12-15T13:07:58.467Z,-3.10
2022-12-15T13:10:30.730Z,-3.00
2022-12-15T13:12:59.878Z,-3.00
2022-12-15T13:15:38.391Z,-2.90
2022-12-15T13:18:15.835Z,-2.90
2022-12-15T13:20:45.872Z,-2.90
2022-12-15T13:23:37.558Z,-2.90
2022-12-15T13:26:19.999Z,-2.90
2022-12-15T13:28:58.750Z,-2.90
2022-12-15T13:31:39.921Z,-2.80
2022-12-15T13:34:27.179Z,-2.80
2022-12-15T13:37:01.203Z,-2.90
2022-12-15T13:39:57.766Z,-2.90
2022-12-15T13:42:53.015Z,-2.90
2022-12-15T13:45:44.093Z,-2.90
2022-12-15T13:48:38.411Z,-2.80
2022-12-15T13:51:25.211Z,-2.90
2022-12-15T13:53:59.706Z,-2.80
2022-12-15T13:56:56.901Z,-2.80
2022-12-15T13:59:38.811Z,-2.80
2022-12-15T14:02:25.061Z,-2.90
2022-12-15T14:05:07.901Z,-2.80
2022-12-15T14:07:36.739Z,-2.90
2022-12-15T14:10:09.866Z,-2.90
2022-12-15T14:12:40.881Z,-2.90
2022-12-15T14:15:15.960Z,-2.90
2022-12-15T14:17:48.258Z,-2.80
2022-12-15T14:20:22.292Z,-2.80
2022-12-15T14:22:52.635Z,-2.80
2022-12-15T14:25:23.055Z,-2.90
2022-12-15T14:27:52.232Z,-2.80
2022-12-15T14:30:24.887Z,-2.90
2022-12-15T14:32:57.538Z,-3.00
2022-12-15T14:35:32.899Z,-3.00
2022-12-15T14:38:03.926Z,-3.10
2022-12-15T14:40:32.629Z,-3.10
2022-12-15T14:43:01.733Z,-3.10
2022-12-15T14:45:33.747Z,-3.20
2022-12-15T14:50:56.036Z,-3.30
2022-12-15T14:53:26.811Z,-3.30
2022-12-15T14:55:55.539Z,-3.30
2022-12-15T14:58:31.912Z,-3.30
2022-12-15T15:01:03.324Z,-3.20
2022-12-15T15:03:14.537Z,-3.20
2022-12-15T15:03:38.563Z,-3.20
2022-12-15T15:06:17.144Z,-3.20
2022-12-15T15:08:48.540Z,-3.30
2022-12-15T15:11:26.940Z,-3.30
2022-12-15T15:13:57.848Z,-3.40
2022-12-15T15:16:28.015Z,-3.50
2022-12-15T15:18:58.375Z,-3.60
2022-12-15T15:21:29.216Z,-3.60
2022-12-15T15:24:03.079Z,-3.60
2022-12-15T15:26:33.017Z,-3.70
2022-12-15T15:29:01.867Z,-3.70
2022-12-15T15:31:41.518Z,-3.70
2022-12-15T15:34:11.607Z,-3.70
2022-12-15T15:36:40.996Z,-3.90
2022-12-15T15:39:15.230Z,-3.90
2022-12-15T15:41:44.995Z,-3.90
2022-12-15T15:44:15.705Z,-3.90
2022-12-15T15:46:49.919Z,-3.90
2022-12-15T15:49:21.916Z,-3.90
2022-12-15T15:51:51.370Z,-4.00
2022-12-15T15:54:24.211Z,-4.00
2022-12-15T15:56:52.533Z,-4.00
2022-12-15T15:59:22.223Z,-4.10
2022-12-15T16:01:56.211Z,-4.20
2022-12-15T16:04:26.913Z,-4.20
2022-12-15T16:06:55.809Z,-4.20
2022-12-15T16:09:26.050Z,-4.30
2022-12-15T16:11:54.562Z,-4.30
2022-12-15T16:14:22.967Z,-4.40
2022-12-15T16:16:54.058Z,-4.30
2022-12-15T16:19:22.380Z,-4.50
2022-12-15T16:21:52.177Z,-4.50
2022-12-15T16:24:20.677Z,-4.50
2022-12-15T16:26:51.820Z,-4.50
2022-12-15T16:29:21.856Z,-4.60
2022-12-15T16:31:58.047Z,-4.60
2022-12-15T16:34:26.557Z,-4.70
2022-12-15T16:36:55.262Z,-4.70
2022-12-15T16:39:29.279Z,-4.70
2022-12-15T16:41:57.986Z,-4.70
2022-12-15T16:44:28.151Z,-4.80
2022-12-15T16:46:58.965Z,-4.90
2022-12-15T16:49:33.860Z,-4.90
2022-12-15T16:52:06.748Z,-5.10
2022-12-15T16:54:35.356Z,-5.10
2022-12-15T16:57:05.580Z,-5.10
2022-12-15T16:59:35.868Z,-5.10
2022-12-15T17:02:27.199Z,-5.20
2022-12-15T17:04:56.257Z,-5.30
2022-12-15T17:07:27.662Z,-5.30
2022-12-15T17:09:57.363Z,-5.30
2022-12-15T17:12:25.757Z,-5.40
2022-12-15T17:14:54.060Z,-5.40
2022-12-15T17:17:24.138Z,-5.40
2022-12-15T17:20:27.346Z,-5.40
2022-12-15T17:22:41.619Z,-5.40
2022-12-15T17:25:20.181Z,-5.40
2022-12-15T17:27:57.663Z,-5.50
2022-12-15T17:30:25.935Z,-5.40
2022-12-15T17:32:55.893Z,-5.40
2022-12-15T17:35:24.809Z,-5.50
2022-12-15T17:37:55.358Z,-5.50
2022-12-15T17:40:26.074Z,-5.60
2022-12-15T17:42:54.799Z,-5.70
2022-12-15T17:45:25.254Z,-5.60
2022-12-15T17:47:55.164Z,-5.80
2022-12-15T17:50:25.075Z,-5.80
2022-12-15T17:52:53.328Z,-5.90
2022-12-15T17:55:30.364Z,-5.90
2022-12-15T17:58:03.940Z,-6.00
2022-12-15T18:00:34.349Z,-6.10
2022-12-15T18:03:04.801Z,-6.20
2022-12-15T18:05:33.460Z,-6.20
2022-12-15T18:08:05.293Z,-6.20
2022-12-15T18:10:37.392Z,-6.20
2022-12-15T18:13:13.231Z,-6.20
2022-12-15T18:15:41.688Z,-6.20
2022-12-15T18:18:12.184Z,-6.20
2022-12-15T18:20:41.129Z,-6.10
2022-12-15T18:23:15.891Z,-6.20
2022-12-15T18:25:45.285Z,-6.20
2022-12-15T18:28:21.140Z,-6.30
2022-12-15T18:30:50.461Z,-6.40
2022-12-15T18:33:21.163Z,-6.40
2022-12-15T18:35:51.440Z,-6.40
2022-12-15T18:38:22.376Z,-6.50
2022-12-15T18:40:52.415Z,-6.60
2022-12-15T18:43:22.561Z,-6.40
2022-12-15T18:45:52.021Z,-6.40
2022-12-15T18:48:24.669Z,-6.40
2022-12-15T18:50:56.072Z,-6.40
2022-12-15T18:53:28.064Z,-6.40
2022-12-15T18:55:56.969Z,-6.50
2022-12-15T18:58:27.404Z,-6.60
2022-12-15T19:00:57.806Z,-6.60
2022-12-15T19:03:28.469Z,-6.70
2022-12-15T19:06:00.042Z,-6.60
2022-12-15T19:08:32.029Z,-6.60
2022-12-15T19:11:02.546Z,-6.50
2022-12-15T19:13:34.937Z,-6.50
2022-12-15T19:16:06.035Z,-6.60
2022-12-15T19:18:53.619Z,-6.70
2022-12-15T19:21:43.479Z,-6.70
2022-12-15T19:24:14.809Z,-6.70
2022-12-15T19:26:44.061Z,-6.80
2022-12-15T19:29:18.114Z,-6.70
2022-12-15T19:31:47.010Z,-6.80
2022-12-15T19:34:19.910Z,-7.00
2022-12-15T19:36:49.078Z,-7.00
2022-12-15T19:39:23.841Z,-7.00
2022-12-15T19:41:53.672Z,-6.90
2022-12-15T19:44:23.629Z,-6.90
2022-12-15T19:46:52.499Z,-6.90
2022-12-15T19:49:25.087Z,-7.00
2022-12-15T19:51:53.406Z,-7.00
2022-12-15T19:54:23.745Z,-7.10
2022-12-15T19:56:52.124Z,-7.30
2022-12-15T19:59:25.215Z,-7.30
2022-12-15T20:01:54.172Z,-7.30
2022-12-15T20:04:25.276Z,-7.30
2022-12-15T20:06:53.747Z,-7.40
2022-12-15T20:09:22.081Z,-7.40
2022-12-15T20:11:50.439Z,-7.40
2022-12-15T20:14:19.388Z,-7.40
2022-12-15T20:16:47.859Z,-7.40
2022-12-15T20:19:16.462Z,-7.50
2022-12-15T20:21:46.403Z,-7.50
2022-12-15T20:24:18.021Z,-7.60
2022-12-15T20:26:46.806Z,-7.60
2022-12-15T20:29:25.694Z,-7.60
2022-12-15T20:31:54.711Z,-7.60
2022-12-15T20:34:23.275Z,-7.60
2022-12-15T20:36:53.531Z,-7.60
2022-12-15T20:39:25.896Z,-7.60
2022-12-15T20:41:54.644Z,-7.70
2022-12-15T20:44:24.114Z,-7.60
2022-12-15T20:46:53.129Z,-7.60
2022-12-15T20:49:23.354Z,-7.60
2022-12-15T20:51:53.528Z,-7.70
2022-12-15T20:54:23.252Z,-7.70
2022-12-15T20:56:51.997Z,-7.70
2022-12-15T20:59:20.664Z,-7.70
2022-12-15T21:01:49.153Z,-7.70
2022-12-15T21:04:25.508Z,-7.70
2022-12-15T21:06:56.007Z,-7.70
2022-12-15T21:09:25.593Z,-7.90
2022-12-15T21:11:55.348Z,-7.90
2022-12-15T21:14:25.083Z,-8.00
2022-12-15T21:16:53.541Z,-8.00
2022-12-15T21:19:23.052Z,-8.00
2022-12-15T21:21:55.409Z,-8.00
2022-12-15T21:24:26.512Z,-8.00
2022-12-15T21:26:55.285Z,-8.10
2022-12-15T21:29:25.121Z,-8.00
2022-12-15T21:31:53.743Z,-8.00
2022-12-15T21:34:21.974Z,-8.00
2022-12-15T21:36:55.640Z,-8.00
2022-12-15T21:39:29.555Z,-8.00
2022-12-15T21:42:00.942Z,-8.00
2022-12-15T21:44:29.649Z,-7.90
2022-12-15T21:46:58.285Z,-8.00
2022-12-15T21:49:25.862Z,-8.00
2022-12-15T21:51:57.975Z,-7.90
2022-12-15T21:54:31.142Z,-7.90
2022-12-15T21:57:00.651Z,-7.90
2022-12-15T21:59:31.491Z,-7.90
2022-12-15T22:02:01.727Z,-7.80
2022-12-15T22:04:33.144Z,-7.90
2022-12-15T22:07:03.449Z,-7.90
2022-12-15T22:09:31.756Z,-7.90
2022-12-15T22:12:00.345Z,-8.00
2022-12-15T22:14:34.302Z,-8.00
2022-12-15T22:17:12.978Z,-8.00
2022-12-15T22:19:41.729Z,-8.00
2022-12-15T22:22:12.667Z,-8.00
2022-12-15T22:24:41.659Z,-8.00
2022-12-15T22:27:19.745Z,-8.00
2022-12-15T22:29:48.657Z,-8.00
2022-12-15T22:32:17.967Z,-8.00
2022-12-15T22:34:46.311Z,-8.00
2022-12-15T22:37:16.188Z,-8.00
2022-12-15T22:39:44.453Z,-8.00
2022-12-15T22:42:18.101Z,-8.00
2022-12-15T22:44:47.067Z,-8.10
2022-12-15T22:47:15.420Z,-8.10
2022-12-15T22:49:44.344Z,-8.10
2022-12-15T22:52:19.753Z,-8.10
2022-12-15T22:54:48.498Z,-8.10
2022-12-15T22:57:21.770Z,-8.20
2022-12-15T22:59:54.715Z,-8.20
2022-12-15T23:02:23.069Z,-8.20
2022-12-15T23:04:51.295Z,-8.20
2022-12-15T23:07:21.449Z,-8.30
2022-12-15T23:10:09.775Z,-8.20
2022-12-15T23:12:37.437Z,-8.20
2022-12-15T23:15:23.740Z,-8.40
2022-12-15T23:17:52.155Z,-8.50
2022-12-15T23:20:20.443Z,-8.60
2022-12-15T23:22:50.008Z,-8.60
2022-12-15T23:25:18.783Z,-8.60
2022-12-15T23:27:47.008Z,-8.60
2022-12-15T23:30:16.037Z,-8.60
2022-12-15T23:32:44.661Z,-8.60
2022-12-15T23:35:12.861Z,-8.60
2022-12-15T23:37:41.229Z,-8.60
2022-12-15T23:40:12.587Z,-8.70
2022-12-15T23:42:40.833Z,-8.80
2022-12-15T23:45:10.255Z,-8.80
2022-12-15T23:47:38.644Z,-8.80
2022-12-15T23:50:07.904Z,-8.80
2022-12-15T23:52:36.314Z,-8.90
2022-12-15T23:55:05.192Z,-8.90
2022-12-15T23:57:35.389Z,-8.90
